Terminal Aerodrome Forecast
Issued by NWS Goodland, KS

Home | Current Version | Previous Version | Text Only | Print | Product List | Glossary On
Versions: 1 2 3 4 5 6 7 8 9 10 11 12 13 14 15
000
FTUS43 KGLD 251121
TAFGLD
TAF
KGLD 251121Z 2512/2612 31008KT P6SM FEW250
     FM251800 VRB05KT P6SM FEW250
     FM260000 14008KT P6SM SCT250
     FM260900 13010KT 6SM BR SCT015 BKN090=

USA.gov is the U.S. government's official web portal to all federal, state and local government web resources and services.